createdAt,value
2022-10-12T00:01:10.615Z,55.99
2022-10-12T00:03:39.476Z,55.99
2022-10-12T00:06:11.951Z,55.90
2022-10-12T00:08:41.830Z,55.90
2022-10-12T00:11:16.102Z,55.95
2022-10-12T00:13:44.652Z,56.02
2022-10-12T00:16:15.189Z,56.13
2022-10-12T00:18:43.475Z,56.10
2022-10-12T00:21:14.496Z,56.03
2022-10-12T00:23:44.795Z,56.21
2022-10-12T00:26:17.637Z,56.32
2022-10-12T00:28:46.218Z,56.22
2022-10-12T00:31:17.346Z,56.38
2022-10-12T00:33:46.350Z,56.52
2022-10-12T00:36:18.149Z,56.52
2022-10-12T00:38:46.803Z,56.59
2022-10-12T00:41:19.305Z,56.57
2022-10-12T00:43:50.949Z,56.65
2022-10-12T00:46:26.319Z,56.53
2022-10-12T00:48:59.890Z,56.43
2022-10-12T00:51:29.048Z,56.53
2022-10-12T00:54:02.522Z,56.53
2022-10-12T00:56:36.818Z,56.46
2022-10-12T00:59:09.856Z,56.38
2022-10-12T01:01:39.319Z,56.44
2022-10-12T01:04:08.524Z,56.34
2022-10-12T01:06:37.110Z,56.44
2022-10-12T01:09:06.033Z,56.46
2022-10-12T01:11:35.642Z,56.49
2022-10-12T01:14:04.218Z,56.48
2022-10-12T01:16:39.572Z,56.47
2022-10-12T01:19:30.490Z,56.58
2022-10-12T01:22:04.978Z,56.53
2022-10-12T01:25:02.617Z,56.47
2022-10-12T01:27:47.245Z,56.48
2022-10-12T01:30:28.193Z,56.66
2022-10-12T01:33:25.841Z,56.52
2022-10-12T01:36:03.555Z,56.47
2022-10-12T01:38:48.649Z,56.55
2022-10-12T01:41:23.039Z,56.56
2022-10-12T01:43:53.154Z,56.49
2022-10-12T01:46:46.117Z,56.52
2022-10-12T01:49:17.862Z,56.63
2022-10-12T01:52:00.402Z,56.71
2022-10-12T01:54:49.155Z,56.99
2022-10-12T01:57:25.327Z,56.82
2022-10-12T02:00:05.635Z,56.94
2022-10-12T02:02:45.825Z,57.07
2022-10-12T02:05:22.435Z,57.04
2022-10-12T02:07:55.345Z,57.28
2022-10-12T02:10:29.287Z,57.24
2022-10-12T02:12:59.065Z,57.41
2022-10-12T02:15:28.733Z,57.38
2022-10-12T02:17:59.669Z,57.25
2022-10-12T02:20:29.251Z,57.33
2022-10-12T02:22:57.512Z,57.50
2022-10-12T02:25:28.010Z,57.58
2022-10-12T02:28:01.491Z,57.49
2022-10-12T02:30:29.758Z,57.28
2022-10-12T02:33:09.300Z,57.25
2022-10-12T02:35:46.558Z,57.41
2022-10-12T02:38:21.485Z,57.38
2022-10-12T02:40:55.889Z,57.43
2022-10-12T02:43:29.387Z,57.37
2022-10-12T02:46:00.039Z,57.38
2022-10-12T02:48:31.323Z,57.44
2022-10-12T02:51:00.541Z,57.51
2022-10-12T02:53:30.325Z,57.32
2022-10-12T02:56:04.742Z,57.25
2022-10-12T02:58:33.037Z,57.24
2022-10-12T03:01:01.390Z,57.41
2022-10-12T03:03:31.285Z,57.19
2022-10-12T03:05:59.526Z,56.97
2022-10-12T03:08:28.120Z,56.86
2022-10-12T03:10:56.343Z,56.63
2022-10-12T03:13:24.601Z,56.69
2022-10-12T03:15:52.864Z,56.46
2022-10-12T03:18:21.477Z,56.42
2022-10-12T03:20:51.114Z,56.22
2022-10-12T03:23:19.362Z,56.22
2022-10-12T03:25:47.602Z,56.16
2022-10-12T03:28:15.948Z,55.91
2022-10-12T03:30:45.041Z,55.93
2022-10-12T03:33:14.011Z,56.00
2022-10-12T03:35:45.332Z,55.97
2022-10-12T03:38:15.605Z,55.99
2022-10-12T03:40:44.233Z,55.98
2022-10-12T03:43:12.898Z,56.00
2022-10-12T03:45:41.518Z,55.88
2022-10-12T03:48:10.421Z,55.93
2022-10-12T03:50:38.793Z,55.97
2022-10-12T03:53:07.743Z,55.81
2022-10-12T03:55:37.353Z,56.09
2022-10-12T03:58:05.619Z,56.21
2022-10-12T04:00:33.867Z,56.35
2022-10-12T04:03:02.408Z,56.52
2022-10-12T04:05:30.986Z,56.70
2022-10-12T04:07:59.898Z,56.76
2022-10-12T04:10:28.209Z,56.71
2022-10-12T04:12:58.897Z,56.78
2022-10-12T04:15:27.170Z,56.80
2022-10-12T04:17:55.515Z,56.80
2022-10-12T04:20:23.749Z,56.83
2022-10-12T04:22:51.999Z,56.97
2022-10-12T04:25:20.200Z,57.04
2022-10-12T04:27:48.430Z,57.11
2022-10-12T04:30:18.685Z,57.06
2022-10-12T04:32:47.027Z,57.23
2022-10-12T04:35:15.444Z,57.26
2022-10-12T04:37:43.701Z,57.26
2022-10-12T04:40:12.530Z,57.09
2022-10-12T04:42:40.786Z,57.32
2022-10-12T04:45:10.438Z,57.28
2022-10-12T04:47:40.447Z,57.22
2022-10-12T04:50:09.851Z,57.15
2022-10-12T04:52:39.755Z,57.29
2022-10-12T04:55:09.683Z,57.30
2022-10-12T04:57:38.640Z,57.44
2022-10-12T05:00:08.823Z,57.45
2022-10-12T05:02:37.068Z,57.18
2022-10-12T05:05:07.556Z,57.40
2022-10-12T05:07:36.077Z,57.31
2022-10-12T05:10:04.643Z,57.31
2022-10-12T05:12:32.923Z,57.25
2022-10-12T05:15:01.136Z,57.41
2022-10-12T05:17:29.417Z,57.39
2022-10-12T05:19:57.688Z,57.26
2022-10-12T05:22:27.360Z,57.23
2022-10-12T05:24:55.588Z,57.15
2022-10-12T05:27:23.807Z,57.04
2022-10-12T05:29:52.055Z,57.06
2022-10-12T05:32:20.425Z,57.01
2022-10-12T05:34:48.625Z,57.00
2022-10-12T05:37:16.832Z,57.01
2022-10-12T05:39:46.732Z,57.08
2022-10-12T05:42:15.268Z,56.88
2022-10-12T05:44:43.572Z,57.05
2022-10-12T05:47:11.968Z,57.03
2022-10-12T05:49:40.237Z,56.84
2022-10-12T05:52:08.621Z,57.02
2022-10-12T05:54:36.857Z,57.09
2022-10-12T05:57:06.565Z,57.13
2022-10-12T05:59:34.827Z,57.13
2022-10-12T06:02:03.248Z,57.11
2022-10-12T06:04:31.529Z,56.98
2022-10-12T06:06:59.836Z,57.13
2022-10-12T06:09:28.157Z,57.26
2022-10-12T06:11:56.665Z,57.36
2022-10-12T06:14:26.326Z,57.40
2022-10-12T06:16:54.771Z,57.44
2022-10-12T06:19:23.309Z,57.63
2022-10-12T06:21:51.500Z,57.55
2022-10-12T06:24:19.717Z,57.67
2022-10-12T06:26:47.966Z,57.68
2022-10-12T06:29:16.277Z,57.69
2022-10-12T06:31:51.278Z,57.80
2022-10-12T06:34:20.248Z,57.93
2022-10-12T06:36:48.624Z,57.89
2022-10-12T06:39:17.067Z,58.07
2022-10-12T06:41:45.339Z,57.95
2022-10-12T06:44:13.786Z,58.22
2022-10-12T06:46:42.104Z,58.25
2022-10-12T06:49:11.850Z,58.47
2022-10-12T06:51:40.136Z,58.68
2022-10-12T06:54:08.426Z,58.96
2022-10-12T06:56:38.175Z,59.12
2022-10-12T06:59:06.647Z,59.61
2022-10-12T07:01:35.023Z,59.54
2022-10-12T07:04:03.344Z,59.23
2022-10-12T07:06:34.370Z,58.99
2022-10-12T07:09:02.961Z,58.78
2022-10-12T07:11:31.245Z,58.66
2022-10-12T07:13:59.721Z,58.76
2022-10-12T07:16:28.192Z,59.00
2022-10-12T07:18:56.475Z,59.04
2022-10-12T07:21:24.746Z,58.86
2022-10-12T07:23:54.409Z,59.10
2022-10-12T07:26:22.759Z,59.30
2022-10-12T07:28:51.429Z,59.19
2022-10-12T07:31:19.739Z,59.38
2022-10-12T07:33:48.007Z,59.59
2022-10-12T07:36:21.276Z,59.16
2022-10-12T07:38:50.316Z,58.73
2022-10-12T07:41:20.402Z,58.67
2022-10-12T07:43:48.948Z,58.46
2022-10-12T07:46:17.245Z,57.96
2022-10-12T07:48:49.971Z,57.28
2022-10-12T07:51:18.942Z,57.18
2022-10-12T07:53:48.095Z,56.88
2022-10-12T07:56:16.485Z,56.47
2022-10-12T07:58:50.531Z,56.23
2022-10-12T08:01:20.693Z,55.67
2022-10-12T08:03:49.598Z,55.47
2022-10-12T08:06:21.527Z,54.98
2022-10-12T08:08:50.246Z,54.71
2022-10-12T08:11:19.599Z,54.52
2022-10-12T08:13:49.715Z,54.06
2022-10-12T08:16:21.304Z,53.98
2022-10-12T08:18:49.711Z,53.34
2022-10-12T08:21:19.153Z,53.04
2022-10-12T08:23:48.791Z,52.93
2022-10-12T08:26:17.363Z,52.05
2022-10-12T08:28:46.121Z,51.91
2022-10-12T08:31:18.050Z,51.97
2022-10-12T08:33:46.570Z,51.32
2022-10-12T08:36:15.258Z,50.81
2022-10-12T08:38:45.480Z,50.67
2022-10-12T08:41:27.647Z,49.71
2022-10-12T08:44:16.901Z,49.49
2022-10-12T08:46:46.735Z,48.17
2022-10-12T08:49:19.446Z,47.69
2022-10-12T08:51:51.618Z,47.94
2022-10-12T08:54:24.224Z,47.09
2022-10-12T08:56:55.558Z,46.12
2022-10-12T08:59:26.171Z,45.36
2022-10-12T09:02:07.118Z,45.36
2022-10-12T09:04:48.034Z,45.09
2022-10-12T09:07:21.617Z,45.17
2022-10-12T09:10:07.191Z,45.41
2022-10-12T09:12:47.556Z,45.17
2022-10-12T09:15:21.378Z,44.91
2022-10-12T09:17:54.503Z,45.15
2022-10-12T09:20:25.904Z,45.00
2022-10-12T09:23:01.607Z,44.78
2022-10-12T09:25:30.348Z,44.98
2022-10-12T09:28:15.621Z,45.39
2022-10-12T09:30:58.652Z,45.25
2022-10-12T09:33:34.210Z,45.07
2022-10-12T09:36:02.448Z,44.87
2022-10-12T09:38:30.730Z,44.48
2022-10-12T09:40:59.029Z,43.83
2022-10-12T09:43:27.326Z,43.75
2022-10-12T09:45:55.809Z,42.95
2022-10-12T09:48:26.928Z,42.64
2022-10-12T09:50:58.642Z,42.33
2022-10-12T09:53:32.612Z,42.57
2022-10-12T09:56:13.169Z,43.13
2022-10-12T09:58:52.859Z,43.38
2022-10-12T10:01:25.270Z,43.77
2022-10-12T10:04:16.816Z,44.06
2022-10-12T10:06:47.225Z,43.46
2022-10-12T10:09:33.643Z,43.78
2022-10-12T10:12:16.024Z,43.48
2022-10-12T10:14:45.835Z,43.13
2022-10-12T10:17:17.178Z,43.07
2022-10-12T10:19:51.920Z,42.99
2022-10-12T10:22:21.043Z,43.56
2022-10-12T10:24:57.546Z,43.53
2022-10-12T10:27:37.228Z,43.21
2022-10-12T10:30:29.730Z,43.50
2022-10-12T10:33:16.538Z,43.23
2022-10-12T10:35:59.851Z,43.26
2022-10-12T10:38:29.281Z,43.42
2022-10-12T10:41:06.967Z,43.50
2022-10-12T10:43:35.998Z,43.21
2022-10-12T10:46:05.898Z,42.87
2022-10-12T10:48:50.961Z,43.50
2022-10-12T10:51:21.102Z,43.61
2022-10-12T10:53:52.666Z,42.78
2022-10-12T10:56:25.109Z,43.21
2022-10-12T10:58:57.723Z,43.18
2022-10-12T11:01:32.684Z,42.89
2022-10-12T11:04:06.000Z,42.53
2022-10-12T11:06:41.239Z,42.56
2022-10-12T11:09:15.996Z,42.39
2022-10-12T11:11:47.608Z,41.68
2022-10-12T11:14:19.142Z,41.26
2022-10-12T11:16:52.228Z,40.90
2022-10-12T11:19:31.105Z,39.90
2022-10-12T11:22:06.128Z,40.32
2022-10-12T11:24:42.653Z,40.15
2022-10-12T11:27:16.839Z,40.19
2022-10-12T11:29:54.036Z,39.87
2022-10-12T11:32:36.223Z,39.82
2022-10-12T11:35:08.255Z,39.70
2022-10-12T11:37:46.500Z,39.81
2022-10-12T11:40:30.977Z,39.98
2022-10-12T11:43:08.834Z,40.11
2022-10-12T11:45:43.864Z,40.51
2022-10-12T11:48:18.176Z,40.24
2022-10-12T11:50:48.541Z,40.80
2022-10-12T11:53:26.686Z,41.15
2022-10-12T11:56:09.715Z,40.89
2022-10-12T11:58:59.853Z,41.09
2022-10-12T12:01:46.465Z,41.09
2022-10-12T12:04:42.667Z,41.23
2022-10-12T12:07:49.642Z,41.43
2022-10-12T12:11:04.128Z,41.74
2022-10-12T12:13:33.234Z,41.68
2022-10-12T12:16:33.741Z,42.11
2022-10-12T12:19:36.803Z,42.04
2022-10-12T12:22:24.459Z,42.13
2022-10-12T12:25:00.212Z,42.03
2022-10-12T12:27:40.123Z,42.11
2022-10-12T12:30:27.266Z,42.09
2022-10-12T12:32:58.044Z,42.02
2022-10-12T12:35:32.167Z,41.93
2022-10-12T12:38:18.340Z,42.14
2022-10-12T12:40:59.552Z,42.44
2022-10-12T12:44:06.102Z,42.39
2022-10-12T12:47:43.997Z,42.58
2022-10-12T12:50:33.108Z,42.43
2022-10-12T12:53:07.808Z,42.36
2022-10-12T12:56:01.085Z,42.60
2022-10-12T12:58:52.858Z,42.21
2022-10-12T13:01:48.629Z,42.24
2022-10-12T13:04:37.027Z,42.22
2022-10-12T13:07:36.631Z,42.27
2022-10-12T13:10:22.804Z,42.35
2022-10-12T13:13:20.313Z,42.46
2022-10-12T13:16:04.363Z,41.94
2022-10-12T13:18:57.580Z,42.16
2022-10-12T13:21:28.350Z,42.22
2022-10-12T13:24:05.935Z,42.23
2022-10-12T13:26:37.238Z,41.96
2022-10-12T13:29:17.947Z,42.37
2022-10-12T13:31:48.945Z,42.00
2022-10-12T13:34:22.767Z,42.06
2022-10-12T13:36:58.704Z,42.13
2022-10-12T13:39:27.606Z,42.21
2022-10-12T13:41:59.157Z,42.49
2022-10-12T13:44:29.465Z,42.71
2022-10-12T13:46:59.412Z,42.42
2022-10-12T13:49:31.372Z,42.29
2022-10-12T13:52:02.579Z,42.78
2022-10-12T13:54:40.527Z,42.92
2022-10-12T13:57:23.829Z,42.97
2022-10-12T13:59:57.640Z,42.68
2022-10-12T14:02:28.318Z,42.88
2022-10-12T14:05:00.460Z,43.03
2022-10-12T14:07:34.228Z,42.77
2022-10-12T14:10:07.732Z,42.72
2022-10-12T14:12:37.706Z,42.77
2022-10-12T14:15:07.492Z,43.04
2022-10-12T14:17:44.495Z,42.96
2022-10-12T14:20:27.970Z,43.27
2022-10-12T14:22:58.937Z,43.48
2022-10-12T14:25:29.666Z,42.66
2022-10-12T14:28:00.615Z,42.85
2022-10-12T14:30:32.473Z,43.52
2022-10-12T14:33:13.177Z,43.42
2022-10-12T14:35:46.759Z,42.93
2022-10-12T14:38:40.088Z,42.86
2022-10-12T14:41:35.599Z,43.08
2022-10-12T14:44:10.687Z,43.45
2022-10-12T14:46:41.539Z,43.46
2022-10-12T14:49:18.433Z,43.65
2022-10-12T14:51:49.147Z,43.40
2022-10-12T14:54:17.824Z,43.36
2022-10-12T14:56:46.368Z,44.06
2022-10-12T14:59:14.961Z,43.77
2022-10-12T15:01:47.427Z,43.24
2022-10-12T15:04:18.703Z,43.36
2022-10-12T15:06:50.885Z,43.60
2022-10-12T15:09:19.619Z,43.54
2022-10-12T15:11:47.959Z,44.44
2022-10-12T15:14:16.343Z,44.08
2022-10-12T15:16:44.672Z,44.27
2022-10-12T15:19:13.037Z,44.73
2022-10-12T15:21:41.418Z,44.79
2022-10-12T15:24:16.341Z,44.33
2022-10-12T15:26:44.765Z,44.24
2022-10-12T15:29:13.196Z,44.41
2022-10-12T15:31:41.557Z,44.42
2022-10-12T15:34:14.009Z,44.71
2022-10-12T15:36:42.864Z,44.71
2022-10-12T15:39:11.383Z,44.56
2022-10-12T15:41:41.118Z,44.76
2022-10-12T15:44:13.239Z,44.92
2022-10-12T15:46:42.926Z,44.95
2022-10-12T15:49:14.216Z,44.94
2022-10-12T15:51:49.627Z,45.33
2022-10-12T15:54:18.239Z,45.37
2022-10-12T15:56:48.135Z,45.40
2022-10-12T15:59:16.539Z,45.46
2022-10-12T16:01:45.306Z,45.88
2022-10-12T16:04:16.267Z,45.80
2022-10-12T16:06:44.648Z,45.89
2022-10-12T16:09:13.081Z,45.98
2022-10-12T16:11:41.469Z,46.08
2022-10-12T16:14:15.138Z,46.09
2022-10-12T16:16:43.690Z,46.37
2022-10-12T16:19:12.215Z,46.46
2022-10-12T16:21:40.613Z,46.65
2022-10-12T16:24:09.108Z,46.57
2022-10-12T16:29:14.089Z,46.80
2022-10-12T16:34:16.715Z,46.90
2022-10-12T16:36:45.086Z,47.11
2022-10-12T16:39:13.548Z,46.97
2022-10-12T16:41:41.955Z,47.01
2022-10-12T16:44:10.378Z,47.38
2022-10-12T16:46:40.244Z,47.43
2022-10-12T16:49:08.687Z,47.39
2022-10-12T16:51:37.120Z,47.78
2022-10-12T16:54:05.759Z,47.90
2022-10-12T16:56:38.560Z,47.95
2022-10-12T16:59:07.951Z,48.35
2022-10-12T17:01:36.253Z,48.20
2022-10-12T17:04:06.296Z,48.52
2022-10-12T17:06:35.120Z,48.57
2022-10-12T17:09:03.469Z,48.53
2022-10-12T17:11:31.852Z,48.53
2022-10-12T17:14:00.108Z,48.88
2022-10-12T17:16:45.864Z,48.92
2022-10-12T17:19:16.379Z,48.97
2022-10-12T17:21:47.592Z,49.04
2022-10-12T17:24:18.599Z,48.83
2022-10-12T17:26:47.851Z,48.67
2022-10-12T17:29:19.311Z,48.83
2022-10-12T17:31:49.283Z,48.87
2022-10-12T17:34:24.816Z,48.94
2022-10-12T17:36:54.673Z,48.72
2022-10-12T17:39:23.770Z,48.53
2022-10-12T17:41:52.230Z,48.97
2022-10-12T17:44:21.121Z,48.87
2022-10-12T17:46:50.417Z,49.03
2022-10-12T17:49:24.765Z,49.15
2022-10-12T17:51:53.456Z,49.10
2022-10-12T17:54:23.494Z,49.02
2022-10-12T17:56:51.891Z,49.23
2022-10-12T17:59:20.899Z,49.42
2022-10-12T18:01:50.072Z,49.42
2022-10-12T18:04:20.476Z,49.14
2022-10-12T18:06:48.864Z,49.14
2022-10-12T18:09:17.374Z,49.24
2022-10-12T18:11:46.001Z,49.15
2022-10-12T18:14:14.893Z,49.42
2022-10-12T18:16:43.220Z,49.28
2022-10-12T18:19:12.757Z,49.73
2022-10-12T18:21:42.418Z,49.76
2022-10-12T18:24:16.292Z,49.70
2022-10-12T18:26:46.758Z,49.85
2022-10-12T18:29:15.250Z,49.86
2022-10-12T18:31:43.635Z,50.04
2022-10-12T18:34:11.927Z,50.07
2022-10-12T18:36:42.868Z,50.06
2022-10-12T18:39:11.272Z,50.04
2022-10-12T18:41:39.586Z,50.03
2022-10-12T18:44:09.101Z,49.90
2022-10-12T18:46:37.677Z,49.84
2022-10-12T18:49:08.380Z,49.50
2022-10-12T18:51:40.007Z,49.82
2022-10-12T18:54:12.749Z,49.55
2022-10-12T18:56:41.894Z,49.85
2022-10-12T18:59:10.272Z,49.74
2022-10-12T19:01:38.749Z,49.89
2022-10-12T19:04:07.855Z,49.96
2022-10-12T19:06:39.861Z,49.88
2022-10-12T19:09:12.023Z,49.86
2022-10-12T19:11:40.431Z,50.01
2022-10-12T19:14:14.691Z,50.08
2022-10-12T19:16:44.231Z,50.02
2022-10-12T19:19:20.872Z,50.22
2022-10-12T19:21:49.827Z,50.02
2022-10-12T19:24:20.848Z,50.32
2022-10-12T19:26:50.046Z,50.37
2022-10-12T19:29:18.844Z,50.23
2022-10-12T19:31:50.633Z,50.39
2022-10-12T19:34:20.851Z,50.58
2022-10-12T19:36:49.802Z,50.75
2022-10-12T19:39:22.303Z,50.93
2022-10-12T19:41:52.053Z,51.16
2022-10-12T19:44:20.767Z,51.36
2022-10-12T19:46:49.498Z,51.43
2022-10-12T19:49:20.189Z,51.49
2022-10-12T19:51:48.642Z,51.74
2022-10-12T19:54:19.673Z,51.96
2022-10-12T19:56:47.916Z,52.05
2022-10-12T19:59:16.695Z,52.40
2022-10-12T20:01:48.063Z,52.53
2022-10-12T20:04:16.549Z,52.62
2022-10-12T20:06:45.023Z,52.70
2022-10-12T20:09:13.321Z,52.79
2022-10-12T20:11:42.969Z,52.79
2022-10-12T20:14:12.203Z,52.85
2022-10-12T20:16:40.556Z,52.81
2022-10-12T20:19:08.900Z,52.71
2022-10-12T20:21:37.553Z,52.69
2022-10-12T20:24:06.342Z,52.79
2022-10-12T20:26:34.620Z,52.68
2022-10-12T20:29:04.534Z,52.82
2022-10-12T20:31:32.791Z,52.78
2022-10-12T20:34:01.025Z,52.91
2022-10-12T20:36:31.241Z,52.78
2022-10-12T20:39:00.211Z,52.97
2022-10-12T20:41:29.466Z,52.78
2022-10-12T20:43:58.690Z,53.14
2022-10-12T20:46:29.439Z,53.14
2022-10-12T20:48:59.455Z,53.20
2022-10-12T20:51:30.241Z,53.24
2022-10-12T20:54:00.846Z,53.34
2022-10-12T20:56:29.827Z,53.14
2022-10-12T20:58:58.222Z,52.95
2022-10-12T21:01:28.550Z,52.95
2022-10-12T21:03:57.202Z,52.87
2022-10-12T21:06:25.579Z,52.78
2022-10-12T21:08:55.574Z,52.89
2022-10-12T21:11:24.945Z,52.77
2022-10-12T21:13:53.559Z,52.88
2022-10-12T21:16:21.984Z,52.89
2022-10-12T21:18:55.272Z,52.73
2022-10-12T21:21:24.058Z,52.73
2022-10-12T21:23:55.412Z,52.64
2022-10-12T21:26:25.862Z,52.55
2022-10-12T21:28:54.423Z,52.42
2022-10-12T21:31:26.017Z,52.44
2022-10-12T21:33:57.836Z,52.37
2022-10-12T21:36:27.479Z,52.46
2022-10-12T21:38:56.323Z,52.47
2022-10-12T21:41:28.673Z,52.40
2022-10-12T21:43:58.164Z,52.34
2022-10-12T21:46:28.826Z,52.15
2022-10-12T21:48:58.857Z,52.22
2022-10-12T21:51:29.289Z,52.15
2022-10-12T21:53:57.574Z,52.12
2022-10-12T21:56:27.944Z,52.16
2022-10-12T21:58:58.597Z,52.35
2022-10-12T22:01:30.069Z,52.32
2022-10-12T22:04:02.221Z,52.50
2022-10-12T22:06:32.591Z,52.44
2022-10-12T22:09:04.959Z,52.55
2022-10-12T22:11:36.157Z,52.67
2022-10-12T22:14:08.971Z,53.15
2022-10-12T22:16:37.887Z,53.28
2022-10-12T22:19:10.870Z,53.45
2022-10-12T22:21:39.093Z,53.71
2022-10-12T22:24:07.934Z,53.83
2022-10-12T22:26:36.260Z,53.96
2022-10-12T22:29:07.466Z,54.14
2022-10-12T22:31:37.004Z,54.24
2022-10-12T22:34:07.163Z,54.26
2022-10-12T22:36:35.727Z,54.53
2022-10-12T22:39:05.113Z,54.50
2022-10-12T22:41:33.394Z,54.61
2022-10-12T22:44:01.648Z,54.66
2022-10-12T22:46:29.869Z,54.86
2022-10-12T22:48:58.111Z,55.01
2022-10-12T22:51:32.204Z,54.86
2022-10-12T22:54:00.965Z,54.95
2022-10-12T22:56:30.141Z,55.02
2022-10-12T22:59:00.468Z,55.19
2022-10-12T23:01:29.654Z,54.99
2022-10-12T23:03:57.916Z,55.21
2022-10-12T23:06:28.390Z,55.33
2022-10-12T23:08:56.710Z,55.32
2022-10-12T23:11:27.763Z,55.31
2022-10-12T23:13:57.078Z,55.39
2022-10-12T23:16:28.334Z,55.31
2022-10-12T23:18:59.486Z,55.20
2022-10-12T23:21:30.884Z,55.41
2022-10-12T23:24:00.748Z,55.44
2022-10-12T23:26:30.209Z,55.63
2022-10-12T23:28:58.559Z,55.64
2022-10-12T23:31:29.159Z,55.60
2022-10-12T23:33:57.849Z,55.67
2022-10-12T23:36:26.316Z,55.70
2022-10-12T23:38:55.878Z,55.76
2022-10-12T23:41:24.127Z,55.96
2022-10-12T23:43:52.348Z,55.93
2022-10-12T23:46:20.623Z,55.95
2022-10-12T23:48:48.836Z,56.05
2022-10-12T23:51:17.091Z,56.12
2022-10-12T23:53:45.384Z,56.11
2022-10-12T23:56:15.211Z,56.07
2022-10-12T23:58:43.491Z,56.41
